createdAt,value
2023-05-24T00:04:40.059Z,17.32
2023-05-24T00:09:42.463Z,17.27
2023-05-24T00:14:44.353Z,17.24
2023-05-24T00:19:46.230Z,17.21
2023-05-24T00:24:48.412Z,17.17
2023-05-24T00:29:50.296Z,17.14
2023-05-24T00:34:52.154Z,17.13
2023-05-24T00:39:54.040Z,17.05
2023-05-24T00:44:55.941Z,17.01
2023-05-24T00:49:58.201Z,16.98
2023-05-24T00:55:00.300Z,16.92
2023-05-24T01:00:05.401Z,16.82
2023-05-24T01:05:08.238Z,16.79
2023-05-24T01:10:44.450Z,16.79
2023-05-24T01:15:49.504Z,16.78
2023-05-24T01:21:26.522Z,16.78
2023-05-24T01:27:02.256Z,16.80
2023-05-24T01:32:05.324Z,16.80
2023-05-24T01:37:07.149Z,16.80
2023-05-24T01:42:25.435Z,16.79
2023-05-24T01:47:27.221Z,16.76
2023-05-24T01:52:34.861Z,16.74
2023-05-24T01:57:40.825Z,16.69
2023-05-24T02:02:43.251Z,16.63
2023-05-24T02:07:45.834Z,16.58
2023-05-24T02:12:47.608Z,16.53
2023-05-24T02:17:49.457Z,16.45
2023-05-24T02:22:51.264Z,16.40
2023-05-24T02:27:53.142Z,16.35
2023-05-24T02:32:55.932Z,16.30
2023-05-24T02:37:58.229Z,16.23
2023-05-24T02:43:00.019Z,17.05
2023-05-24T02:48:02.146Z,19.31
2023-05-24T02:53:04.062Z,19.85
2023-05-24T02:58:05.959Z,18.70
2023-05-24T03:03:07.959Z,17.98
2023-05-24T03:08:09.900Z,17.57
2023-05-24T03:13:11.817Z,17.32
2023-05-24T03:18:13.759Z,17.12
2023-05-24T03:23:16.153Z,16.99
2023-05-24T03:28:18.744Z,16.90
2023-05-24T03:33:20.829Z,16.83
2023-05-24T03:38:22.622Z,16.81
2023-05-24T03:43:24.686Z,16.83
2023-05-24T03:48:26.660Z,16.84
2023-05-24T03:53:28.573Z,16.88
2023-05-24T03:58:30.726Z,16.93
2023-05-24T04:03:33.764Z,16.99
2023-05-24T04:08:36.018Z,17.06
2023-05-24T04:13:37.898Z,17.17
2023-05-24T04:18:39.992Z,17.33
2023-05-24T04:23:42.159Z,17.64
2023-05-24T04:28:45.277Z,17.94
2023-05-24T04:33:47.554Z,18.19
2023-05-24T04:38:50.078Z,18.30
2023-05-24T04:43:52.949Z,18.33
2023-05-24T04:48:54.833Z,18.40
2023-05-24T04:53:56.638Z,18.48
2023-05-24T04:58:58.374Z,18.54
2023-05-24T05:04:00.587Z,18.59
2023-05-24T05:09:02.483Z,18.69
2023-05-24T05:14:05.680Z,18.78
2023-05-24T05:19:08.036Z,18.83
2023-05-24T05:24:09.826Z,18.91
2023-05-24T05:29:11.605Z,19.01
2023-05-24T05:34:13.496Z,19.16
2023-05-24T05:39:15.448Z,19.30
2023-05-24T05:44:17.657Z,19.40
2023-05-24T05:49:20.337Z,19.50
2023-05-24T05:54:22.460Z,19.63
2023-05-24T05:59:24.542Z,19.76
2023-05-24T06:04:26.517Z,19.84
2023-05-24T06:09:28.442Z,19.90
2023-05-24T06:14:31.268Z,20.02
2023-05-24T06:19:33.449Z,20.22
2023-05-24T06:24:36.143Z,20.34
2023-05-24T06:29:38.043Z,20.53
2023-05-24T06:34:39.789Z,20.84
2023-05-24T06:39:41.875Z,21.03
2023-05-24T06:44:43.953Z,21.30
2023-05-24T06:49:47.675Z,21.65
2023-05-24T06:54:50.194Z,21.84
2023-05-24T06:59:52.246Z,21.95
2023-05-24T07:04:54.583Z,22.18
2023-05-24T07:09:56.612Z,22.47
2023-05-24T07:14:58.596Z,22.80
2023-05-24T07:20:01.940Z,23.09
2023-05-24T07:25:05.217Z,23.30
2023-05-24T07:30:16.422Z,23.61
2023-05-24T07:35:28.947Z,23.89
2023-05-24T07:40:30.814Z,24.14
2023-05-24T07:45:33.522Z,24.33
2023-05-24T07:50:36.018Z,24.52
2023-05-24T07:55:38.563Z,24.79
2023-05-24T08:00:40.922Z,25.03
2023-05-24T08:05:43.600Z,25.34
2023-05-24T08:10:45.768Z,25.60
2023-05-24T08:15:48.067Z,25.82
2023-05-24T08:20:50.352Z,25.97
2023-05-24T08:25:53.053Z,26.16
2023-05-24T08:30:55.471Z,26.48
2023-05-24T08:35:57.510Z,26.73
2023-05-24T08:41:00.135Z,27.01
2023-05-24T08:46:03.895Z,27.32
2023-05-24T08:51:07.242Z,27.62
2023-05-24T08:56:10.075Z,27.80
2023-05-24T09:01:14.563Z,28.01
2023-05-24T09:06:18.976Z,28.23
2023-05-24T09:11:23.870Z,28.46
2023-05-24T09:16:26.003Z,28.63
2023-05-24T09:21:29.199Z,28.80
2023-05-24T09:26:31.542Z,28.93
2023-05-24T09:31:36.434Z,29.07
2023-05-24T09:36:42.604Z,29.27
2023-05-24T09:41:56.712Z,29.61
2023-05-24T09:47:06.222Z,29.96
2023-05-24T09:52:08.102Z,30.16
2023-05-24T09:57:10.867Z,30.38
2023-05-24T10:02:13.056Z,30.72
2023-05-24T10:07:16.427Z,30.88
2023-05-24T10:12:22.575Z,31.14
2023-05-24T10:17:27.682Z,31.43
2023-05-24T10:22:32.354Z,31.55
2023-05-24T10:27:36.451Z,31.60
2023-05-24T10:32:40.734Z,31.39
2023-05-24T10:37:42.698Z,31.48
2023-05-24T10:42:45.418Z,31.66
2023-05-24T10:47:47.281Z,31.81
2023-05-24T10:52:49.554Z,31.83
2023-05-24T10:57:52.148Z,31.96
2023-05-24T11:03:08.811Z,32.30
2023-05-24T11:08:11.051Z,32.67
2023-05-24T11:13:14.376Z,32.95
2023-05-24T11:18:17.014Z,32.90
2023-05-24T11:23:20.167Z,32.83
2023-05-24T11:28:23.163Z,32.67
2023-05-24T11:33:25.049Z,32.85
2023-05-24T11:38:27.241Z,32.73
2023-05-24T11:43:31.054Z,32.48
2023-05-24T11:48:33.453Z,32.40
2023-05-24T11:53:35.872Z,32.67
2023-05-24T11:58:55.686Z,32.91
2023-05-24T12:03:57.804Z,33.05
2023-05-24T12:08:59.908Z,33.55
2023-05-24T12:14:02.291Z,34.01
2023-05-24T12:19:07.425Z,34.47
2023-05-24T12:24:17.036Z,34.77
2023-05-24T12:29:19.404Z,34.79
2023-05-24T12:34:21.189Z,34.61
2023-05-24T12:39:30.955Z,33.98
2023-05-24T12:44:38.070Z,33.35
2023-05-24T12:49:39.934Z,32.85
2023-05-24T12:54:41.794Z,32.58
2023-05-24T12:59:43.787Z,32.34
2023-05-24T13:04:46.168Z,32.16
2023-05-24T13:09:49.063Z,31.97
2023-05-24T13:14:52.806Z,31.75
2023-05-24T13:19:57.019Z,31.64
2023-05-24T13:24:58.818Z,31.50
2023-05-24T13:30:01.528Z,31.29
2023-05-24T13:35:06.652Z,31.08
2023-05-24T13:40:11.242Z,31.02
2023-05-24T13:45:13.271Z,30.94
2023-05-24T13:50:15.237Z,31.01
2023-05-24T13:55:17.007Z,30.82
2023-05-24T14:00:19.839Z,30.35
2023-05-24T14:05:27.324Z,29.83
2023-05-24T14:10:29.938Z,29.50
2023-05-24T14:15:33.533Z,29.87
2023-05-24T14:20:37.348Z,30.72
2023-05-24T14:25:40.948Z,31.00
2023-05-24T14:30:43.357Z,31.07
2023-05-24T14:35:46.206Z,31.07
2023-05-24T14:40:48.664Z,30.90
2023-05-24T14:45:51.110Z,30.44
2023-05-24T14:50:53.230Z,30.11
2023-05-24T14:55:55.309Z,30.17
2023-05-24T15:00:57.262Z,30.21
2023-05-24T15:05:59.388Z,30.30
2023-05-24T15:11:01.559Z,30.10
2023-05-24T15:16:04.148Z,29.66
2023-05-24T15:21:06.048Z,29.37
2023-05-24T15:26:07.934Z,29.12
2023-05-24T15:31:10.422Z,28.91
2023-05-24T15:36:14.020Z,28.67
2023-05-24T15:41:15.925Z,28.40
2023-05-24T15:46:21.496Z,28.22
2023-05-24T15:52:01.642Z,28.15
2023-05-24T15:56:45.183Z,28.07
2023-05-24T16:01:47.149Z,28.23
2023-05-24T16:06:49.408Z,29.00
2023-05-24T16:11:51.631Z,29.55
2023-05-24T16:16:54.237Z,29.59
2023-05-24T16:21:57.042Z,29.55
2023-05-24T16:26:59.428Z,29.26
2023-05-24T16:32:01.422Z,28.87
2023-05-24T16:37:03.273Z,28.53
2023-05-24T16:42:06.716Z,28.28
2023-05-24T16:47:08.701Z,28.24
2023-05-24T16:52:10.857Z,28.19
2023-05-24T16:57:12.741Z,28.44
2023-05-24T17:02:15.026Z,28.90
2023-05-24T17:07:16.802Z,29.11
2023-05-24T17:12:20.756Z,29.15
2023-05-24T17:17:22.744Z,28.91
2023-05-24T17:22:24.577Z,28.56
2023-05-24T17:27:26.465Z,28.11
2023-05-24T17:32:28.267Z,27.72
2023-05-24T17:37:30.215Z,27.48
2023-05-24T17:42:32.292Z,27.27
2023-05-24T17:47:34.525Z,26.87
2023-05-24T17:52:36.897Z,26.56
2023-05-24T17:57:38.840Z,26.30
2023-05-24T18:02:41.116Z,26.03
2023-05-24T18:07:43.314Z,25.74
2023-05-24T18:12:45.213Z,25.48
2023-05-24T18:17:47.085Z,25.16
2023-05-24T18:22:49.250Z,24.92
2023-05-24T18:27:51.363Z,24.76
2023-05-24T18:38:05.156Z,24.33
2023-05-24T18:43:07.129Z,24.19
2023-05-24T18:48:09.355Z,24.00
2023-05-24T18:53:11.379Z,23.83
2023-05-24T18:58:16.468Z,23.70
2023-05-24T19:03:18.624Z,23.71
2023-05-24T19:08:20.697Z,23.77
2023-05-24T19:13:22.615Z,23.81
2023-05-24T19:18:24.677Z,23.69
2023-05-24T19:23:27.184Z,23.53
2023-05-24T19:28:29.953Z,23.40
2023-05-24T19:33:31.825Z,23.29
2023-05-24T19:38:33.850Z,23.20
2023-05-24T19:43:36.098Z,23.10
2023-05-24T19:48:39.000Z,22.95
2023-05-24T19:53:41.387Z,22.76
2023-05-24T19:58:43.785Z,22.55
2023-05-24T20:03:48.426Z,22.32
2023-05-24T20:08:52.471Z,22.12
2023-05-24T20:13:55.655Z,21.88
2023-05-24T20:18:57.831Z,21.73
2023-05-24T20:23:59.730Z,21.59
2023-05-24T20:29:01.696Z,21.48
2023-05-24T20:34:03.881Z,21.37
2023-05-24T20:39:06.398Z,21.25
2023-05-24T20:44:08.252Z,21.12
2023-05-24T20:49:10.156Z,21.00
2023-05-24T20:54:13.593Z,20.88
2023-05-24T20:59:15.727Z,20.76
2023-05-24T21:04:19.136Z,20.62
2023-05-24T21:09:21.637Z,20.51
2023-05-24T21:14:23.544Z,20.44
2023-05-24T21:19:25.601Z,20.39
2023-05-24T21:24:27.582Z,20.36
2023-05-24T21:29:29.759Z,20.20
2023-05-24T21:34:31.525Z,20.02
2023-05-24T21:39:33.429Z,19.92
2023-05-24T21:44:35.328Z,19.91
2023-05-24T21:49:37.574Z,19.99
2023-05-24T21:54:39.452Z,20.08
2023-05-24T21:59:41.332Z,20.14
2023-05-24T22:04:43.329Z,20.16
2023-05-24T22:09:45.488Z,20.14
2023-05-24T22:14:47.673Z,20.16
2023-05-24T22:19:49.742Z,20.08
2023-05-24T22:24:51.652Z,20.01
2023-05-24T22:29:56.808Z,19.99
2023-05-24T22:34:58.680Z,19.92
2023-05-24T22:40:00.544Z,19.83
2023-05-24T22:45:03.083Z,19.70
2023-05-24T22:50:07.588Z,19.51
2023-05-24T22:55:13.265Z,19.32
2023-05-24T23:00:16.041Z,19.18
2023-05-24T23:05:21.209Z,19.05
2023-05-24T23:10:23.070Z,18.99
2023-05-24T23:15:28.665Z,18.93
2023-05-24T23:20:30.753Z,18.83
2023-05-24T23:25:34.235Z,18.64
2023-05-24T23:30:36.029Z,19.44
2023-05-24T23:35:40.858Z,21.58
2023-05-24T23:40:42.853Z,22.60
2023-05-24T23:45:45.231Z,22.48
2023-05-24T23:50:53.904Z,21.13
2023-05-24T23:55:56.389Z,20.21
